createdAt,value
2022-10-19T00:02:08.464Z,10.76
2022-10-19T00:04:34.999Z,10.69
2022-10-19T00:07:01.407Z,10.67
2022-10-19T00:09:29.147Z,10.61
2022-10-19T00:11:56.337Z,10.61
2022-10-19T00:14:24.273Z,10.55
2022-10-19T00:16:53.010Z,10.51
2022-10-19T00:19:23.444Z,10.46
2022-10-19T00:24:22.278Z,10.41
2022-10-19T00:26:48.711Z,10.31
2022-10-19T00:29:15.648Z,10.27
2022-10-19T00:31:42.355Z,10.22
2022-10-19T00:34:09.097Z,10.13
2022-10-19T00:36:40.032Z,10.12
2022-10-19T00:39:10.403Z,10.07
2022-10-19T00:41:37.116Z,10.03
2022-10-19T00:44:07.142Z,9.96
2022-10-19T00:46:37.031Z,9.88
2022-10-19T00:49:27.326Z,9.92
2022-10-19T00:51:56.865Z,9.86
2022-10-19T00:54:24.066Z,9.81
2022-10-19T00:56:52.211Z,9.78
2022-10-19T00:59:20.960Z,9.65
2022-10-19T01:01:48.207Z,9.67
2022-10-19T01:04:15.071Z,9.59
2022-10-19T01:06:42.060Z,9.64
2022-10-19T01:09:09.268Z,9.65
2022-10-19T01:11:59.104Z,9.67
2022-10-19T01:14:28.013Z,9.72
2022-10-19T01:17:06.552Z,9.84
2022-10-19T01:20:05.487Z,9.85
2022-10-19T01:23:09.053Z,9.86
2022-10-19T01:25:56.969Z,9.83
2022-10-19T01:28:32.587Z,9.90
2022-10-19T01:31:03.921Z,9.82
2022-10-19T01:33:33.542Z,9.80
2022-10-19T01:36:09.227Z,9.81
2022-10-19T01:38:44.840Z,9.79
2022-10-19T01:41:16.617Z,9.81
2022-10-19T01:44:08.023Z,9.77
2022-10-19T01:46:39.528Z,9.64
2022-10-19T01:49:13.419Z,9.64
2022-10-19T01:51:43.960Z,9.64
2022-10-19T01:54:12.728Z,9.61
2022-10-19T01:56:42.380Z,9.62
2022-10-19T01:59:10.608Z,9.67
2022-10-19T02:01:39.787Z,9.67
2022-10-19T02:04:06.714Z,9.64
2022-10-19T02:06:33.240Z,9.64
2022-10-19T02:09:00.085Z,9.64
2022-10-19T02:11:26.612Z,9.57
2022-10-19T02:13:58.551Z,9.66
2022-10-19T02:16:38.627Z,9.65
2022-10-19T02:19:08.592Z,9.67
2022-10-19T02:21:35.228Z,9.64
2022-10-19T02:24:01.646Z,9.62
2022-10-19T02:26:28.260Z,9.61
2022-10-19T02:28:56.179Z,9.60
2022-10-19T02:31:23.036Z,9.64
2022-10-19T02:33:49.530Z,9.62
2022-10-19T02:36:16.128Z,9.56
2022-10-19T02:38:42.651Z,9.55
2022-10-19T02:41:15.752Z,9.60
2022-10-19T02:43:43.072Z,9.59
2022-10-19T02:46:36.810Z,9.51
2022-10-19T02:49:04.510Z,9.47
2022-10-19T02:51:36.790Z,9.41
2022-10-19T02:54:05.457Z,9.35
2022-10-19T02:56:33.378Z,9.40
2022-10-19T02:59:00.112Z,9.39
2022-10-19T03:01:26.847Z,9.39
2022-10-19T03:03:53.305Z,9.38
2022-10-19T03:06:20.020Z,9.26
2022-10-19T03:08:46.773Z,9.28
2022-10-19T03:11:13.228Z,9.27
2022-10-19T03:13:41.339Z,9.24
2022-10-19T03:16:09.703Z,9.25
2022-10-19T03:18:36.281Z,9.17
2022-10-19T03:21:08.421Z,9.14
2022-10-19T03:23:35.209Z,9.18
2022-10-19T03:26:01.712Z,9.16
2022-10-19T03:28:28.668Z,9.14
2022-10-19T03:30:55.224Z,9.10
2022-10-19T03:33:22.500Z,9.09
2022-10-19T03:35:49.114Z,9.06
2022-10-19T03:38:16.190Z,9.16
2022-10-19T03:40:42.796Z,9.14
2022-10-19T03:43:09.326Z,9.14
2022-10-19T03:45:35.980Z,9.09
2022-10-19T03:48:02.438Z,9.10
2022-10-19T03:50:28.901Z,9.07
2022-10-19T03:52:55.585Z,9.09
2022-10-19T03:55:22.455Z,9.12
2022-10-19T03:57:48.960Z,9.14
2022-10-19T04:00:15.804Z,9.19
2022-10-19T04:02:42.344Z,9.21
2022-10-19T04:05:09.101Z,9.18
2022-10-19T04:07:35.874Z,9.19
2022-10-19T04:10:02.465Z,9.22
2022-10-19T04:12:29.097Z,9.21
2022-10-19T04:14:57.778Z,9.24
2022-10-19T04:17:25.488Z,9.23
2022-10-19T04:19:51.992Z,9.30
2022-10-19T04:22:18.476Z,9.34
2022-10-19T04:24:44.965Z,9.38
2022-10-19T04:27:11.592Z,9.33
2022-10-19T04:29:38.064Z,9.32
2022-10-19T04:32:04.664Z,9.30
2022-10-19T04:34:35.158Z,9.34
2022-10-19T04:37:04.157Z,9.35
2022-10-19T04:39:32.769Z,9.32
2022-10-19T04:41:59.327Z,9.32
2022-10-19T04:44:25.808Z,9.37
2022-10-19T04:46:52.378Z,9.34
2022-10-19T04:49:20.334Z,9.33
2022-10-19T04:51:46.970Z,9.33
2022-10-19T04:54:13.552Z,9.33
2022-10-19T04:56:40.111Z,9.35
2022-10-19T04:59:06.631Z,9.33
2022-10-19T05:01:33.271Z,9.33
2022-10-19T05:04:01.481Z,9.40
2022-10-19T05:06:28.296Z,9.38
2022-10-19T05:08:54.885Z,9.38
2022-10-19T05:11:21.630Z,9.35
2022-10-19T05:13:48.553Z,9.38
2022-10-19T05:16:18.072Z,9.29
2022-10-19T05:18:51.399Z,9.32
2022-10-19T05:21:18.892Z,9.33
2022-10-19T05:23:45.424Z,9.34
2022-10-19T05:26:17.638Z,9.34
2022-10-19T05:28:52.000Z,9.36
2022-10-19T05:31:20.700Z,9.38
2022-10-19T05:33:47.277Z,9.31
2022-10-19T05:36:14.805Z,9.39
2022-10-19T05:38:42.311Z,9.37
2022-10-19T05:41:08.880Z,9.31
2022-10-19T05:43:35.431Z,9.34
2022-10-19T05:46:10.548Z,9.43
2022-10-19T05:48:37.640Z,9.42
2022-10-19T05:51:05.684Z,9.39
2022-10-19T05:53:33.385Z,9.47
2022-10-19T05:56:00.136Z,9.48
2022-10-19T05:58:26.860Z,9.50
2022-10-19T06:00:54.262Z,9.46
2022-10-19T06:03:22.314Z,9.51
2022-10-19T06:05:49.572Z,9.52
2022-10-19T06:08:17.473Z,9.51
2022-10-19T06:10:44.855Z,9.52
2022-10-19T06:13:12.239Z,9.60
2022-10-19T06:15:40.428Z,9.52
2022-10-19T06:18:07.647Z,9.54
2022-10-19T06:20:35.479Z,9.58
2022-10-19T06:23:02.684Z,9.56
2022-10-19T06:25:33.686Z,9.57
2022-10-19T06:28:00.715Z,9.63
2022-10-19T06:30:27.809Z,9.64
2022-10-19T06:32:54.677Z,9.60
2022-10-19T06:35:21.521Z,9.61
2022-10-19T06:37:47.983Z,9.57
2022-10-19T06:40:14.574Z,9.60
2022-10-19T06:42:41.088Z,9.67
2022-10-19T06:45:10.797Z,9.70
2022-10-19T06:47:37.780Z,9.72
2022-10-19T06:50:06.559Z,9.77
2022-10-19T06:52:34.408Z,9.81
2022-10-19T06:55:01.593Z,9.81
2022-10-19T06:57:28.737Z,9.86
2022-10-19T06:59:55.604Z,9.95
2022-10-19T07:02:22.524Z,9.87
2022-10-19T07:04:48.973Z,9.86
2022-10-19T07:07:15.607Z,9.84
2022-10-19T07:09:42.034Z,9.96
2022-10-19T07:12:10.774Z,9.98
2022-10-19T07:14:39.665Z,10.20
2022-10-19T07:17:06.975Z,10.20
2022-10-19T07:19:34.095Z,10.11
2022-10-19T07:22:00.653Z,10.20
2022-10-19T07:24:27.145Z,10.26
2022-10-19T07:26:53.805Z,10.32
2022-10-19T07:29:20.838Z,10.54
2022-10-19T07:31:47.661Z,10.78
2022-10-19T07:34:14.926Z,10.87
2022-10-19T07:36:45.364Z,10.90
2022-10-19T07:39:13.232Z,11.12
2022-10-19T07:41:40.211Z,11.96
2022-10-19T07:44:08.209Z,11.82
2022-10-19T07:46:39.237Z,11.53
2022-10-19T07:49:09.869Z,11.14
2022-10-19T07:51:40.037Z,10.86
2022-10-19T07:54:06.744Z,10.83
2022-10-19T07:56:33.363Z,10.76
2022-10-19T07:59:00.477Z,10.78
2022-10-19T08:01:34.890Z,10.71
2022-10-19T08:06:48.236Z,11.02
2022-10-19T08:09:33.423Z,11.05
2022-10-19T08:12:01.948Z,10.80
2022-10-19T08:14:28.464Z,10.71
2022-10-19T08:16:54.905Z,10.64
2022-10-19T08:19:22.664Z,10.55
2022-10-19T08:21:49.172Z,10.48
2022-10-19T08:24:17.805Z,10.38
2022-10-19T08:26:44.671Z,10.28
2022-10-19T08:29:16.556Z,10.11
2022-10-19T08:31:44.170Z,9.89
2022-10-19T08:34:11.586Z,9.83
2022-10-19T08:36:38.183Z,9.79
2022-10-19T08:39:06.790Z,9.77
2022-10-19T08:41:38.218Z,9.79
2022-10-19T08:44:25.871Z,9.78
2022-10-19T08:47:02.399Z,9.75
2022-10-19T08:49:31.518Z,9.83
2022-10-19T08:52:00.793Z,9.91
2022-10-19T08:54:44.139Z,10.02
2022-10-19T08:57:25.152Z,10.06
2022-10-19T09:00:06.885Z,10.14
2022-10-19T09:02:45.360Z,10.27
2022-10-19T09:05:45.443Z,10.25
2022-10-19T09:08:16.801Z,10.16
2022-10-19T09:10:47.136Z,10.20
2022-10-19T09:13:21.250Z,10.14
2022-10-19T09:15:49.442Z,10.23
2022-10-19T09:18:22.783Z,10.26
2022-10-19T09:20:51.124Z,10.34
2022-10-19T09:23:17.475Z,10.41
2022-10-19T09:25:43.959Z,10.43
2022-10-19T09:28:38.779Z,10.53
2022-10-19T09:31:07.775Z,10.57
2022-10-19T09:33:36.534Z,10.51
2022-10-19T09:36:05.327Z,10.59
2022-10-19T09:38:32.986Z,10.66
2022-10-19T09:41:12.901Z,10.70
2022-10-19T09:43:39.610Z,10.88
2022-10-19T09:46:19.768Z,11.03
2022-10-19T09:48:51.372Z,11.09
2022-10-19T09:51:18.846Z,11.40
2022-10-19T09:53:51.673Z,11.89
2022-10-19T09:56:24.153Z,11.93
2022-10-19T09:58:52.870Z,11.83
2022-10-19T10:01:43.217Z,11.58
2022-10-19T10:04:17.981Z,11.22
2022-10-19T10:06:47.286Z,10.97
2022-10-19T10:09:18.634Z,10.72
2022-10-19T10:11:48.119Z,10.31
2022-10-19T10:14:20.813Z,10.18
2022-10-19T10:16:47.656Z,10.02
2022-10-19T10:19:16.372Z,9.92
2022-10-19T10:21:51.124Z,9.93
2022-10-19T10:24:20.177Z,10.03
2022-10-19T10:26:52.629Z,10.07
2022-10-19T10:29:33.227Z,10.10
2022-10-19T10:32:05.368Z,10.25
2022-10-19T10:34:59.981Z,10.33
2022-10-19T10:37:38.391Z,10.35
2022-10-19T10:40:05.981Z,10.42
2022-10-19T10:42:37.188Z,10.54
2022-10-19T10:45:04.634Z,10.82
2022-10-19T10:47:32.541Z,10.88
2022-10-19T10:50:03.377Z,10.84
2022-10-19T10:52:34.202Z,10.70
2022-10-19T10:55:17.497Z,10.56
2022-10-19T10:57:48.319Z,10.63
2022-10-19T11:00:20.247Z,10.74
2022-10-19T11:02:52.445Z,10.92
2022-10-19T11:05:26.863Z,11.06
2022-10-19T11:07:58.996Z,11.29
2022-10-19T11:10:35.782Z,11.34
2022-10-19T11:13:28.233Z,11.29
2022-10-19T11:16:03.023Z,11.50
2022-10-19T11:18:34.938Z,11.63
2022-10-19T11:21:06.896Z,11.71
2022-10-19T11:23:55.569Z,11.87
2022-10-19T11:26:32.866Z,12.04
2022-10-19T11:29:50.662Z,12.35
2022-10-19T11:32:46.053Z,12.32
2022-10-19T11:35:36.579Z,12.52
2022-10-19T11:38:22.067Z,12.49
2022-10-19T11:43:45.712Z,12.48
2022-10-19T11:46:26.546Z,12.48
2022-10-19T11:49:20.363Z,12.60
2022-10-19T11:51:57.475Z,12.33
2022-10-19T11:54:58.288Z,11.99
2022-10-19T11:57:36.966Z,11.76
2022-10-19T12:00:15.314Z,11.67
2022-10-19T12:06:18.079Z,11.40
2022-10-19T12:09:10.668Z,11.43
2022-10-19T12:11:43.213Z,11.43
2022-10-19T12:14:13.941Z,11.48
2022-10-19T12:16:43.939Z,11.46
2022-10-19T12:19:19.965Z,11.45
2022-10-19T12:21:46.773Z,11.48
2022-10-19T12:24:19.785Z,11.48
2022-10-19T12:26:47.183Z,11.56
2022-10-19T12:29:21.255Z,11.61
2022-10-19T12:31:51.052Z,11.59
2022-10-19T12:34:33.397Z,11.40
2022-10-19T12:37:07.399Z,11.39
2022-10-19T12:39:39.801Z,11.60
2022-10-19T12:42:29.783Z,11.89
2022-10-19T12:45:18.523Z,12.17
2022-10-19T12:48:08.593Z,12.49
2022-10-19T12:50:56.865Z,12.73
2022-10-19T12:53:31.452Z,12.77
2022-10-19T12:56:23.023Z,12.75
2022-10-19T12:59:01.704Z,12.64
2022-10-19T13:01:34.110Z,12.71
2022-10-19T13:04:20.671Z,12.87
2022-10-19T13:06:51.957Z,12.98
2022-10-19T13:09:39.623Z,12.48
2022-10-19T13:12:19.455Z,12.04
2022-10-19T13:14:52.803Z,11.83
2022-10-19T13:17:35.034Z,11.51
2022-10-19T13:20:13.727Z,11.35
2022-10-19T13:22:44.969Z,11.40
2022-10-19T13:25:17.490Z,11.44
2022-10-19T13:27:45.237Z,11.55
2022-10-19T13:30:36.948Z,11.72
2022-10-19T13:33:25.434Z,11.65
2022-10-19T13:36:10.694Z,11.72
2022-10-19T13:38:45.078Z,11.81
2022-10-19T13:41:19.618Z,11.75
2022-10-19T13:44:14.998Z,11.65
2022-10-19T13:46:53.779Z,11.48
2022-10-19T13:49:33.027Z,11.25
2022-10-19T13:52:32.861Z,11.03
2022-10-19T13:55:46.445Z,10.95
2022-10-19T13:58:48.049Z,11.02
2022-10-19T14:01:23.371Z,11.04
2022-10-19T14:04:10.850Z,11.14
2022-10-19T14:07:05.607Z,11.46
2022-10-19T14:09:44.635Z,11.98
2022-10-19T14:12:25.498Z,12.32
2022-10-19T14:14:53.750Z,12.02
2022-10-19T14:17:24.603Z,11.16
2022-10-19T14:19:57.129Z,10.39
2022-10-19T14:22:26.578Z,10.15
2022-10-19T14:25:01.158Z,10.26
2022-10-19T14:27:27.672Z,10.29
2022-10-19T14:29:54.599Z,10.05
2022-10-19T14:32:27.130Z,9.99
2022-10-19T14:34:54.752Z,9.79
2022-10-19T14:37:23.646Z,9.67
2022-10-19T14:40:27.571Z,9.55
2022-10-19T14:42:55.226Z,9.55
2022-10-19T14:45:24.199Z,9.43
2022-10-19T14:47:56.032Z,9.49
2022-10-19T14:50:46.149Z,9.47
2022-10-19T14:53:20.812Z,9.42
2022-10-19T14:55:48.449Z,9.20
2022-10-19T14:58:19.315Z,9.17
2022-10-19T15:00:47.411Z,9.08
2022-10-19T15:03:21.932Z,9.11
2022-10-19T15:05:49.739Z,9.16
2022-10-19T15:08:48.557Z,9.04
2022-10-19T15:11:41.209Z,8.94
2022-10-19T15:14:15.762Z,8.83
2022-10-19T15:16:51.500Z,8.73
2022-10-19T15:19:33.358Z,8.75
2022-10-19T15:22:19.850Z,8.54
2022-10-19T15:25:21.905Z,8.51
2022-10-19T15:27:51.030Z,8.46
2022-10-19T15:30:17.473Z,8.38
2022-10-19T15:32:46.189Z,8.46
2022-10-19T15:35:20.406Z,8.36
2022-10-19T15:37:48.954Z,8.27
2022-10-19T15:40:36.662Z,8.22
2022-10-19T15:43:31.562Z,8.18
2022-10-19T15:46:03.449Z,8.12
2022-10-19T15:48:50.012Z,8.01
2022-10-19T15:51:33.936Z,7.95
2022-10-19T15:54:02.539Z,7.91
2022-10-19T15:56:32.395Z,7.89
2022-10-19T15:59:01.042Z,7.77
2022-10-19T16:01:29.807Z,7.73
2022-10-19T16:03:57.013Z,7.70
2022-10-19T16:06:25.901Z,7.60
2022-10-19T16:08:54.057Z,7.59
2022-10-19T16:11:21.858Z,7.50
2022-10-19T16:13:48.800Z,7.51
2022-10-19T16:16:26.997Z,7.41
2022-10-19T16:18:54.503Z,7.42
2022-10-19T16:21:24.843Z,7.43
2022-10-19T16:23:51.742Z,7.38
2022-10-19T16:26:19.198Z,7.43
2022-10-19T16:28:45.947Z,7.42
2022-10-19T16:31:12.576Z,7.34
2022-10-19T16:33:39.116Z,7.43
2022-10-19T16:36:07.068Z,7.38
2022-10-19T16:38:34.247Z,7.34
2022-10-19T16:41:06.017Z,7.26
2022-10-19T16:43:33.212Z,7.24
2022-10-19T16:46:00.820Z,7.21
2022-10-19T16:48:27.641Z,7.11
2022-10-19T16:51:06.762Z,7.13
2022-10-19T16:53:34.615Z,7.07
2022-10-19T16:56:05.626Z,7.04
2022-10-19T16:58:32.911Z,7.00
2022-10-19T17:01:02.256Z,6.98
2022-10-19T17:03:28.813Z,7.02
2022-10-19T17:05:55.469Z,6.92
2022-10-19T17:08:36.421Z,6.91
2022-10-19T17:11:10.811Z,6.90
2022-10-19T17:13:37.418Z,6.82
2022-10-19T17:16:05.756Z,6.73
2022-10-19T17:18:33.167Z,6.72
2022-10-19T17:21:07.643Z,6.75
2022-10-19T17:23:34.327Z,6.69
2022-10-19T17:26:01.213Z,6.62
2022-10-19T17:28:27.969Z,6.67
2022-10-19T17:30:54.631Z,6.64
2022-10-19T17:33:22.053Z,6.66
2022-10-19T17:35:48.512Z,6.72
2022-10-19T17:38:15.222Z,6.58
2022-10-19T17:40:41.643Z,6.57
2022-10-19T17:43:08.223Z,6.52
2022-10-19T17:45:34.913Z,6.47
2022-10-19T17:48:01.469Z,6.48
2022-10-19T17:50:27.906Z,6.40
2022-10-19T17:52:54.644Z,6.34
2022-10-19T17:57:48.891Z,6.32
2022-10-19T18:00:15.473Z,6.27
2022-10-19T18:02:44.362Z,6.24
2022-10-19T18:05:10.923Z,6.16
2022-10-19T18:07:37.756Z,6.14
2022-10-19T18:10:04.743Z,6.13
2022-10-19T18:12:32.162Z,6.06
2022-10-19T18:14:58.698Z,6.02
2022-10-19T18:17:27.654Z,5.92
2022-10-19T18:19:54.417Z,5.83
2022-10-19T18:22:21.883Z,5.82
2022-10-19T18:24:49.478Z,5.73
2022-10-19T18:27:15.982Z,5.70
2022-10-19T18:29:42.531Z,5.72
2022-10-19T18:32:09.101Z,5.67
2022-10-19T18:34:35.567Z,5.62
2022-10-19T18:37:02.169Z,5.61
2022-10-19T18:39:28.714Z,5.59
2022-10-19T18:41:55.313Z,5.57
2022-10-19T18:44:26.291Z,5.48
2022-10-19T18:46:53.836Z,5.44
2022-10-19T18:49:20.363Z,5.47
2022-10-19T18:51:50.745Z,5.37
2022-10-19T18:54:21.035Z,5.41
2022-10-19T18:56:47.673Z,5.38
2022-10-19T18:59:14.589Z,5.25
2022-10-19T19:01:41.130Z,5.26
2022-10-19T19:04:09.310Z,5.26
2022-10-19T19:06:36.945Z,5.22
2022-10-19T19:09:06.749Z,5.17
2022-10-19T19:11:36.901Z,5.15
2022-10-19T19:14:07.529Z,5.14
2022-10-19T19:16:37.025Z,5.07
2022-10-19T19:19:04.147Z,5.07
2022-10-19T19:21:31.569Z,5.04
2022-10-19T19:24:00.082Z,4.98
2022-10-19T19:26:28.789Z,4.95
2022-10-19T19:28:55.362Z,5.00
2022-10-19T19:31:21.951Z,5.05
2022-10-19T19:33:48.574Z,4.93
2022-10-19T19:36:16.936Z,4.87
2022-10-19T19:38:44.457Z,4.92
2022-10-19T19:41:13.000Z,4.90
2022-10-19T19:43:39.893Z,4.95
2022-10-19T19:46:09.602Z,4.85
2022-10-19T19:48:37.019Z,4.82
2022-10-19T19:51:03.617Z,4.83
2022-10-19T19:53:31.065Z,4.70
2022-10-19T19:55:57.679Z,4.69
2022-10-19T19:58:24.105Z,4.72
2022-10-19T20:00:50.517Z,4.63
2022-10-19T20:03:16.993Z,4.59
2022-10-19T20:05:43.483Z,4.59
2022-10-19T20:08:10.115Z,4.56
2022-10-19T20:10:40.348Z,4.54
2022-10-19T20:13:07.321Z,4.49
2022-10-19T20:15:37.311Z,4.49
2022-10-19T20:18:03.778Z,4.46
2022-10-19T20:20:30.546Z,4.43
2022-10-19T20:22:57.522Z,4.42
2022-10-19T20:25:24.126Z,4.48
2022-10-19T20:27:50.636Z,4.43
2022-10-19T20:30:19.018Z,4.40
2022-10-19T20:32:45.529Z,4.38
2022-10-19T20:35:11.972Z,4.30
2022-10-19T20:37:38.445Z,4.32
2022-10-19T20:40:08.515Z,4.35
2022-10-19T20:42:35.728Z,4.32
2022-10-19T20:45:02.515Z,4.28
2022-10-19T20:47:29.460Z,4.32
2022-10-19T20:49:55.947Z,4.32
2022-10-19T20:52:22.748Z,4.32
2022-10-19T20:54:49.329Z,4.26
2022-10-19T20:57:15.771Z,4.24
2022-10-19T20:59:43.803Z,4.26
2022-10-19T21:02:10.942Z,4.19
2022-10-19T21:04:37.692Z,4.18
2022-10-19T21:07:05.076Z,4.12
2022-10-19T21:09:32.208Z,4.09
2022-10-19T21:11:59.121Z,4.13
2022-10-19T21:14:28.875Z,4.08
2022-10-19T21:16:57.164Z,4.05
2022-10-19T21:19:25.541Z,3.99
2022-10-19T21:21:57.791Z,3.91
2022-10-19T21:24:26.955Z,3.85
2022-10-19T21:26:53.598Z,3.74
2022-10-19T21:29:20.168Z,3.70
2022-10-19T21:31:50.086Z,3.66
2022-10-19T21:34:19.251Z,3.57
2022-10-19T21:36:45.752Z,3.62
2022-10-19T21:39:12.223Z,3.58
2022-10-19T21:41:38.730Z,3.54
2022-10-19T21:44:05.326Z,3.48
2022-10-19T21:46:32.266Z,3.49
2022-10-19T21:48:58.738Z,3.51
2022-10-19T21:51:42.438Z,3.48
2022-10-19T21:56:43.610Z,3.50
2022-10-19T21:59:10.475Z,3.56
2022-10-19T22:01:40.154Z,3.60
2022-10-19T22:04:11.107Z,3.57
2022-10-19T22:06:37.722Z,3.53
2022-10-19T22:09:05.665Z,3.45
2022-10-19T22:11:32.365Z,3.55
2022-10-19T22:14:00.794Z,3.41
2022-10-19T22:16:28.810Z,3.36
2022-10-19T22:18:55.829Z,3.32
2022-10-19T22:21:28.701Z,3.26
2022-10-19T22:24:06.969Z,3.20
2022-10-19T22:26:36.312Z,3.15
2022-10-19T22:29:04.400Z,3.12
2022-10-19T22:31:32.649Z,3.06
2022-10-19T22:34:04.909Z,3.00
2022-10-19T22:36:32.260Z,2.98
2022-10-19T22:38:58.667Z,2.96
2022-10-19T22:41:25.213Z,2.91
2022-10-19T22:43:51.693Z,2.92
2022-10-19T22:46:18.195Z,2.88
2022-10-19T22:48:45.048Z,2.90
2022-10-19T22:51:11.495Z,2.82
2022-10-19T22:53:38.039Z,2.79
2022-10-19T22:56:05.152Z,2.74
2022-10-19T22:58:32.321Z,2.70
2022-10-19T23:01:03.782Z,2.67
2022-10-19T23:03:30.862Z,2.71
2022-10-19T23:05:57.503Z,2.63
2022-10-19T23:08:23.948Z,2.67
2022-10-19T23:10:50.384Z,2.66
2022-10-19T23:13:17.177Z,2.66
2022-10-19T23:15:44.752Z,2.63
2022-10-19T23:18:12.001Z,2.68
2022-10-19T23:20:38.487Z,2.65
2022-10-19T23:23:05.589Z,2.61
2022-10-19T23:28:03.795Z,2.45
2022-10-19T23:30:31.034Z,2.49
2022-10-19T23:32:57.594Z,2.51
2022-10-19T23:35:24.115Z,2.43
2022-10-19T23:37:50.641Z,2.43
2022-10-19T23:40:17.334Z,2.39
2022-10-19T23:42:43.826Z,2.32
2022-10-19T23:45:10.564Z,2.29
2022-10-19T23:47:37.390Z,2.27
2022-10-19T23:50:04.200Z,2.21
2022-10-19T23:52:31.082Z,2.23
2022-10-19T23:54:57.510Z,2.17
2022-10-19T23:57:23.953Z,2.18
2022-10-19T23:59:50.346Z,2.17
